Time;durP1;ratioP1;P1;durP2;ratioP2;P2;SDS_P1;SDS_P2;PMS_P1;PMS_P2;Temp;Humidity;BMP_temperature;BMP_pressure;BME280_temperature;BME280_humidity;BME280_pressure;Samples;Min_cycle;Max_cycle;Signal;HPM_P1;HPM_P2
2022/09/30 00:02:11;;;;;;;2.80;2.15;;;;;;;23.72;51.83;94595.75;4977582;28;20031;-62
2022/09/30 00:04:36;;;;;;;2.88;2.20;;;;;;;23.81;51.71;94632.78;4971323;28;20073;-63
2022/09/30 00:07:02;;;;;;;3.83;2.30;;;;;;;23.80;51.80;94623.16;4980717;28;20066;-62
2022/09/30 00:09:27;;;;;;;2.92;2.05;;;;;;;23.56;52.13;94582.38;4980670;28;20383;-63
2022/09/30 00:11:53;;;;;;;2.67;2.25;;;;;;;23.74;51.94;94611.59;4965170;28;20033;-61
2022/09/30 00:14:20;;;;;;;3.42;2.10;;;;;;;23.71;51.66;94615.38;4957341;28;20030;-64
2022/09/30 00:16:45;;;;;;;3.15;2.20;;;;;;;23.63;52.08;94600.84;4962800;28;20034;-64
2022/09/30 00:19:11;;;;;;;3.13;2.10;;;;;;;23.80;51.72;94612.25;4966042;28;20042;-64
2022/09/30 00:21:37;;;;;;;3.90;2.40;;;;;;;23.77;51.98;94624.19;4977650;28;20169;-63
2022/09/30 00:24:03;;;;;;;2.45;2.03;;;;;;;23.76;51.90;94622.72;4965985;28;20527;-63
2022/09/30 00:26:29;;;;;;;3.05;2.13;;;;;;;23.76;52.32;94628.91;4978803;28;20791;-65
2022/09/30 00:28:56;;;;;;;2.90;2.08;;;;;;;23.76;52.12;94634.34;4974085;28;20035;-63
2022/09/30 00:31:22;;;;;;;2.92;2.22;;;;;;;23.39;51.73;94579.16;4960858;28;20038;-63
2022/09/30 00:34:10;;;;;;;2.83;2.05;;;;;;;23.76;51.59;94628.16;4951393;28;20046;-63
2022/09/30 00:36:50;;;;;;;2.95;1.88;;;;;;;23.75;52.02;94626.69;4970242;28;20870;-62
2022/09/30 00:39:21;;;;;;;3.08;2.03;;;;;;;23.59;52.06;94614.78;4979036;28;20475;-63
2022/09/30 00:41:47;;;;;;;3.45;2.38;;;;;;;23.70;51.57;94620.06;4978367;28;20022;-63
2022/09/30 00:44:50;;;;;;;3.70;2.22;;;;;;;23.74;51.98;94619.78;4960414;28;20037;-63
2022/09/30 00:47:19;;;;;;;3.63;2.38;;;;;;;23.74;52.16;94603.44;4964219;28;20105;-63
2022/09/30 00:49:44;;;;;;;3.22;2.20;;;;;;;23.63;51.90;94598.09;4973898;28;20080;-64
2022/09/30 00:52:10;;;;;;;2.78;2.20;;;;;;;23.57;51.86;94583.84;4962360;28;20066;-63
2022/09/30 00:54:35;;;;;;;2.85;2.00;;;;;;;23.49;51.68;94582.97;4980227;28;20525;-63
2022/09/30 00:57:03;;;;;;;2.95;2.30;;;;;;;23.45;51.80;94568.91;4980131;28;20042;-64
2022/09/30 00:59:32;;;;;;;3.67;2.45;;;;;;;23.69;51.87;94617.88;4960950;28;20507;-64
2022/09/30 01:01:57;;;;;;;3.75;2.10;;;;;;;23.51;51.66;94580.47;4960659;28;20435;-62
2022/09/30 01:04:23;;;;;;;2.95;2.33;;;;;;;23.62;51.80;94607.56;4945575;28;20178;-64
2022/09/30 01:06:49;;;;;;;4.15;2.53;;;;;;;23.37;51.56;94575.50;4933631;29;21079;-61
2022/09/30 01:09:15;;;;;;;2.88;2.13;;;;;;;23.72;52.18;94622.28;4977457;28;20129;-61
2022/09/30 01:11:40;;;;;;;2.42;2.10;;;;;;;23.26;52.00;94543.72;4980318;28;20499;-61
2022/09/30 01:14:14;;;;;;;2.67;2.00;;;;;;;23.70;51.88;94613.88;4982281;28;20084;-61
2022/09/30 01:16:59;;;;;;;3.17;2.10;;;;;;;23.70;51.50;94608.44;4961820;28;20046;-59
2022/09/30 01:19:54;;;;;;;2.92;1.98;;;;;;;23.72;51.91;94611.38;4962878;28;20380;-59
2022/09/30 01:22:38;;;;;;;2.90;2.30;;;;;;;23.71;51.45;94616.09;4981135;28;20050;-60
2022/09/30 01:25:26;;;;;;;2.92;2.13;;;;;;;23.68;51.71;94614.41;4974847;28;20057;-62
2022/09/30 01:28:02;;;;;;;2.80;2.15;;;;;;;23.51;51.54;94594.09;4968749;28;20056;-62
2022/09/30 01:30:46;;;;;;;2.92;2.10;;;;;;;23.70;51.99;94619.34;4966915;28;20055;-62
2022/09/30 01:33:37;;;;;;;3.00;2.28;;;;;;;23.70;51.91;94624.78;4983048;28;20047;-63
2022/09/30 01:36:12;;;;;;;3.28;2.13;;;;;;;23.69;51.42;94617.88;4976969;28;20053;-63
2022/09/30 01:38:47;;;;;;;3.20;2.15;;;;;;;23.68;51.38;94633.50;4965931;28;20047;-63
2022/09/30 01:41:27;;;;;;;3.85;2.50;;;;;;;23.45;51.96;94585.25;4966220;28;20478;-63
2022/09/30 01:43:58;;;;;;;3.33;1.80;;;;;;;23.68;51.53;94627.31;4954714;28;20047;-60
2022/09/30 01:46:29;;;;;;;2.45;1.90;;;;;;;23.68;51.51;94621.88;4977225;28;20053;-63
2022/09/30 01:49:24;;;;;;;3.20;2.03;;;;;;;23.54;51.48;94604.69;4962766;28;20106;-63
2022/09/30 01:51:55;;;;;;;2.45;1.88;;;;;;;23.68;51.50;94624.59;4964840;28;20542;-64
2022/09/30 01:54:49;;;;;;;2.60;1.98;;;;;;;23.65;51.51;94614.72;4977878;28;20046;-63
2022/09/30 01:57:21;;;;;;;2.90;2.10;;;;;;;23.38;51.59;94577.72;4954933;28;20046;-63
2022/09/30 01:59:53;;;;;;;2.53;2.00;;;;;;;23.52;52.04;94606.47;4947400;28;20029;-63
2022/09/30 02:02:29;;;;;;;3.08;1.90;;;;;;;23.45;51.71;94593.44;4957698;28;20479;-64
2022/09/30 02:04:58;;;;;;;2.78;1.90;;;;;;;23.65;51.61;94622.91;4938188;28;20064;-62
2022/09/30 02:07:53;;;;;;;2.67;2.05;;;;;;;23.53;51.82;94599.78;4930106;28;20066;-62
2022/09/30 02:10:43;;;;;;;2.78;1.90;;;;;;;23.65;51.91;94622.91;4963481;28;20042;-63
2022/09/30 02:13:13;;;;;;;;;;;;;;;23.66;51.89;94630.56;4963743;28;20038;-63
2022/09/30 02:15:43;;;;;;;2.45;1.90;;;;;;;23.66;52.01;94635.25;4970574;28;20338;-62
2022/09/30 02:18:18;;;;;;;3.83;2.03;;;;;;;23.22;51.38;94575.97;4963901;28;20320;-62
2022/09/30 02:20:44;;;;;;;2.70;1.80;;;;;;;23.34;51.87;94593.63;4942687;28;20492;-62
2022/09/30 02:23:13;;;;;;;2.80;2.15;;;;;;;23.55;51.76;94627.22;4964992;28;20027;-64
2022/09/30 02:25:41;;;;;;;2.63;2.07;;;;;;;23.22;51.64;94570.53;4976221;28;20133;-63
2022/09/30 02:28:09;;;;;;;2.65;2.00;;;;;;;23.41;51.20;94601.19;4967148;28;20501;-62
2022/09/30 02:30:35;;;;;;;2.85;2.15;;;;;;;23.50;51.34;94617.16;4967225;28;20062;-63
2022/09/30 02:33:03;;;;;;;3.25;2.38;;;;;;;23.41;51.93;94614.81;4984682;28;20039;-62
2022/09/30 02:35:48;;;;;;;2.97;1.75;;;;;;;23.37;51.34;94610.94;4963158;28;20070;-64
2022/09/30 02:38:29;;;;;;;2.83;1.90;;;;;;;23.64;51.41;94645.97;4959476;28;20053;-64
2022/09/30 02:40:57;;;;;;;2.92;2.17;;;;;;;23.36;51.36;94596.56;4938135;28;20062;-64
2022/09/30 02:43:22;;;;;;;2.85;1.95;;;;;;;23.63;51.90;94628.09;4956294;28;20415;-65
2022/09/30 02:46:10;;;;;;;2.40;1.80;;;;;;;23.62;51.55;94623.91;4971446;28;20038;-66
2022/09/30 02:48:50;;;;;;;2.97;2.17;;;;;;;23.62;51.34;94629.38;4975704;28;20039;-62
2022/09/30 02:51:23;;;;;;;3.28;2.05;;;;;;;23.53;51.55;94616.13;4969785;28;20042;-62
2022/09/30 02:54:16;;;;;;;2.92;1.85;;;;;;;23.61;51.90;94627.88;4982027;28;20035;-65
2022/09/30 02:56:49;;;;;;;3.50;2.22;;;;;;;23.63;51.86;94637.03;4955191;28;20120;-62
2022/09/30 02:59:15;;;;;;;2.67;2.10;;;;;;;23.39;51.66;94595.50;4979725;28;20038;-64
2022/09/30 03:01:40;;;;;;;3.05;2.30;;;;;;;23.48;51.87;94614.97;4933652;28;20507;-64
2022/09/30 03:04:11;;;;;;;2.22;1.75;;;;;;;23.51;51.56;94637.69;4958483;28;20397;-64
2022/09/30 03:06:37;;;;;;;2.20;1.77;;;;;;;23.62;51.27;94651.16;4945466;28;20041;-64
2022/09/30 03:09:03;;;;;;;3.22;2.00;;;;;;;23.62;51.36;94662.06;4965503;28;20067;-62
2022/09/30 03:11:28;;;;;;;3.03;2.15;;;;;;;23.54;51.31;94640.13;4986380;28;20030;-63
2022/09/30 03:14:30;;;;;;;2.80;1.83;;;;;;;23.61;51.78;94660.59;4951000;28;20436;-63
2022/09/30 03:17:31;;;;;;;2.63;2.10;;;;;;;23.34;51.67;94615.41;4909278;28;20050;-64
2022/09/30 03:20:41;;;;;;;2.38;2.08;;;;;;;23.60;51.74;94648.22;4968326;28;20042;-63
2022/09/30 03:24:04;;;;;;;2.90;2.25;;;;;;;23.61;51.72;94649.69;4952372;28;20132;-62
2022/09/30 03:26:30;;;;;;;2.80;2.05;;;;;;;23.60;51.83;94653.66;4902144;29;20067;-62
2022/09/30 03:29:23;;;;;;;2.72;2.30;;;;;;;23.36;51.75;94607.44;4902303;29;20040;-62
2022/09/30 03:32:08;;;;;;;2.50;2.00;;;;;;;23.61;51.86;94660.59;4924563;28;20042;-62
2022/09/30 03:34:36;;;;;;;2.53;2.00;;;;;;;23.62;51.58;94662.06;4962350;28;20042;-63
2022/09/30 03:37:49;;;;;;;2.90;2.10;;;;;;;23.61;51.32;94666.03;4981407;28;20081;-63
2022/09/30 03:40:23;;;;;;;2.50;2.10;;;;;;;23.60;51.73;94653.66;4907573;28;20054;-62
2022/09/30 03:43:07;;;;;;;4.55;2.13;;;;;;;23.44;51.34;94635.59;4980873;28;20038;-62
2022/09/30 03:45:36;;;;;;;2.17;1.98;;;;;;;23.61;51.90;94655.16;4935654;28;20043;-63
2022/09/30 03:48:04;;;;;;;2.47;2.10;;;;;;;23.52;51.53;94663.69;4968326;28;20046;-63
2022/09/30 03:50:30;;;;;;;3.42;2.05;;;;;;;23.36;51.35;94650.31;4945261;28;20035;-64
2022/09/30 03:52:55;;;;;;;3.22;2.10;;;;;;;23.57;51.52;94681.97;4944367;28;20050;-62
2022/09/30 03:55:21;;;;;;;2.17;1.95;;;;;;;23.35;51.28;94655.03;4978507;28;20026;-63
2022/09/30 03:57:48;;;;;;;3.00;1.90;;;;;;;23.44;51.50;94657.38;4964001;28;20514;-63
2022/09/30 04:00:13;;;;;;;2.83;1.90;;;;;;;23.23;51.85;94637.38;4980880;28;20034;-63
2022/09/30 04:02:39;;;;;;;2.55;1.95;;;;;;;23.58;51.90;94678.00;4976985;28;20106;-63
2022/09/30 04:05:05;;;;;;;2.63;2.00;;;;;;;23.34;51.68;94650.84;4951497;28;20677;-63
2022/09/30 04:07:31;;;;;;;3.15;2.30;;;;;;;23.54;51.71;94685.72;4972302;28;20034;-64
2022/09/30 04:09:56;;;;;;;2.80;2.25;;;;;;;23.59;51.79;94682.19;4958005;28;20046;-63
2022/09/30 04:12:22;;;;;;;3.65;2.10;;;;;;;23.34;51.67;94636.50;4978727;28;20046;-63
2022/09/30 04:14:47;;;;;;;2.78;2.25;;;;;;;23.59;51.52;94680.19;4979741;28;20084;-63
2022/09/30 04:17:13;;;;;;;3.35;2.25;;;;;;;23.50;51.25;94669.69;4969802;28;20048;-62
2022/09/30 04:19:39;;;;;;;2.83;2.20;;;;;;;23.37;51.69;94652.53;4974391;28;20035;-62
2022/09/30 04:22:05;;;;;;;2.60;2.10;;;;;;;23.39;51.69;94658.19;4945968;28;20039;-63
2022/09/30 04:24:31;;;;;;;3.13;2.10;;;;;;;23.55;51.87;94679.03;4975765;28;20077;-63
2022/09/30 04:26:56;;;;;;;2.58;2.38;;;;;;;23.28;51.57;94612.03;4978659;28;20506;-62
2022/09/30 04:29:21;;;;;;;2.63;1.90;;;;;;;23.58;51.60;94672.53;4974600;28;20050;-63
2022/09/30 04:31:47;;;;;;;3.15;2.30;;;;;;;23.20;51.73;94627.53;4978620;28;20038;-63
2022/09/30 04:34:12;;;;;;;2.60;2.17;;;;;;;23.52;51.50;94685.50;4979829;28;20034;-63
2022/09/30 04:36:38;;;;;;;2.50;2.20;;;;;;;23.18;51.91;94640.91;4979880;28;20054;-63
2022/09/30 04:39:03;;;;;;;2.83;2.05;;;;;;;23.51;51.36;94689.47;4976837;28;20105;-63
2022/09/30 04:41:31;;;;;;;3.13;2.78;;;;;;;23.57;51.96;94692.84;4951706;28;20113;-62
2022/09/30 04:43:56;;;;;;;2.70;2.10;;;;;;;23.53;51.98;94687.00;4981069;28;20128;-63
2022/09/30 04:46:21;;;;;;;2.42;2.15;;;;;;;23.53;51.46;94692.44;4986872;28;20034;-63
2022/09/30 04:48:47;;;;;;;3.08;2.13;;;;;;;23.55;51.87;94706.28;4968613;28;20035;-63
2022/09/30 04:51:18;;;;;;;2.42;2.22;;;;;;;23.58;51.34;94710.69;4970929;28;20041;-66
2022/09/30 04:53:43;;;;;;;2.85;2.30;;;;;;;23.59;51.49;94712.19;4980143;28;20030;-66
2022/09/30 04:56:09;;;;;;;2.95;2.53;;;;;;;23.27;51.50;94675.94;4975985;28;20327;-64
2022/09/30 04:58:35;;;;;;;2.92;2.20;;;;;;;23.26;51.77;94684.63;4977719;28;20492;-63
2022/09/30 05:01:01;;;;;;;2.50;2.03;;;;;;;23.35;51.79;94700.59;4982003;28;20528;-63
2022/09/30 05:03:27;;;;;;;3.25;2.28;;;;;;;23.58;52.02;94727.06;4969946;28;20484;-64
2022/09/30 05:05:52;;;;;;;4.28;2.40;;;;;;;23.22;51.60;94674.03;4979055;28;20038;-64
2022/09/30 05:08:18;;;;;;;2.65;2.10;;;;;;;23.43;51.80;94683.16;4973683;28;20023;-63
2022/09/30 05:10:45;;;;;;;3.30;2.08;;;;;;;23.72;51.70;94712.25;4998434;28;20532;-62
2022/09/30 05:13:11;;;;;;;2.63;2.40;;;;;;;23.54;51.13;94677.53;4991669;28;20037;-64
2022/09/30 05:15:36;;;;;;;2.40;2.10;;;;;;;23.93;50.93;94722.06;4997328;28;20034;-62
2022/09/30 05:18:02;;;;;;;2.97;2.10;;;;;;;23.84;51.03;94699.91;4976119;28;20038;-64
2022/09/30 05:20:27;;;;;;;2.85;2.13;;;;;;;23.97;50.83;94715.06;5002485;28;20080;-66
2022/09/30 05:22:54;;;;;;;3.55;2.33;;;;;;;24.30;50.36;94747.25;4994216;28;20034;-62
2022/09/30 05:25:20;;;;;;;2.97;2.50;;;;;;;24.41;50.18;94758.03;4999968;28;20037;-62
2022/09/30 05:27:49;;;;;;;4.28;2.40;;;;;;;24.32;50.30;94741.28;4991609;28;20042;-62
2022/09/30 05:30:15;;;;;;;2.78;2.30;;;;;;;24.40;49.67;94723.81;4989789;28;20145;-63
2022/09/30 05:32:40;;;;;;;3.45;2.50;;;;;;;24.66;49.64;94740.22;4975410;28;20573;-65
2022/09/30 05:35:06;;;;;;;4.15;2.75;;;;;;;24.03;49.86;94658.41;4988402;28;20015;-63
2022/09/30 05:37:33;;;;;;;3.53;2.80;;;;;;;24.65;49.50;94739.50;4999923;28;20650;-62
2022/09/30 05:39:58;;;;;;;4.90;3.20;;;;;;;24.83;49.60;94766.69;4971604;28;20122;-63
2022/09/30 05:42:23;;;;;;;3.92;3.03;;;;;;;24.56;48.80;94709.88;4992599;28;20450;-63
2022/09/30 05:44:49;;;;;;;4.53;3.60;;;;;;;24.78;48.96;94736.03;5000532;28;20041;-62
2022/09/30 05:47:14;;;;;;;4.88;3.47;;;;;;;25.02;48.85;94766.63;4988949;28;20030;-63
2022/09/30 05:49:40;;;;;;;5.03;3.35;;;;;;;24.99;48.49;94748.53;4970773;28;20039;-64
2022/09/30 05:52:06;;;;;;;4.72;3.25;;;;;;;25.18;48.53;94777.22;4986256;28;20053;-65
2022/09/30 05:54:32;;;;;;;5.50;3.17;;;;;;;25.01;48.24;94744.03;4999505;28;20038;-64
2022/09/30 05:56:57;;;;;;;5.43;3.85;;;;;;;25.27;48.16;94765.16;5002432;28;20116;-63
2022/09/30 05:59:23;;;;;;;5.53;3.58;;;;;;;25.29;48.11;94765.34;4998865;28;20014;-64
2022/09/30 06:01:49;;;;;;;6.60;3.70;;;;;;;25.35;47.92;94772.16;4991269;28;20038;-63
2022/09/30 06:04:15;;;;;;;6.78;4.78;;;;;;;25.41;47.93;94780.97;4985433;28;20045;-63
2022/09/30 06:06:41;;;;;;;7.50;4.32;;;;;;;25.54;47.56;94772.78;4985471;28;20555;-64
2022/09/30 06:09:06;;;;;;;5.65;4.22;;;;;;;25.36;47.73;94768.91;4986420;28;20061;-64
2022/09/30 06:11:33;;;;;;;5.38;3.58;;;;;;;25.67;47.65;94786.47;4986229;28;20494;-63
2022/09/30 06:13:59;;;;;;;6.70;4.40;;;;;;;25.59;47.49;94741.81;4981195;28;20045;-66
2022/09/30 06:16:25;;;;;;;6.65;4.45;;;;;;;25.55;47.38;94749.63;4970688;28;20031;-65
2022/09/30 06:18:50;;;;;;;6.57;4.57;;;;;;;25.58;47.66;94745.84;4973120;28;20031;-64
2022/09/30 06:21:16;;;;;;;6.28;4.50;;;;;;;26.07;46.66;94764.63;4976665;28;20042;-65
2022/09/30 06:23:42;;;;;;;7.03;4.80;;;;;;;25.64;48.08;94776.53;4990301;28;20046;-64
2022/09/30 06:26:08;;;;;;;9.27;5.25;;;;;;;25.82;47.57;94796.28;4973933;28;20136;-63
2022/09/30 06:37:02;;;;;;;7.75;5.57;;;;;;;26.02;46.88;94795.63;5013556;28;20480;-63
2022/09/30 06:39:27;;;;;;;9.20;6.22;;;;;;;26.12;46.98;94802.09;5009634;28;20058;-63
2022/09/30 06:41:55;;;;;;;9.00;6.32;;;;;;;25.64;47.09;94732.78;5005886;28;20513;-62
2022/09/30 06:44:21;;;;;;;8.88;6.30;;;;;;;26.22;47.30;94808.59;5016144;28;20022;-61
2022/09/30 06:46:46;;;;;;;9.05;6.50;;;;;;;25.99;46.68;94774.78;5010549;28;20030;-60
2022/09/30 06:49:12;;;;;;;9.75;6.60;;;;;;;25.88;46.73;94753.13;5015006;28;20103;-63
2022/09/30 06:51:37;;;;;;;9.18;7.60;;;;;;;26.36;46.58;94848.34;5008077;28;20045;-63
2022/09/30 06:54:03;;;;;;;10.43;7.20;;;;;;;26.33;46.61;94836.47;5015125;28;20042;-63
2022/09/30 06:56:28;;;;;;;10.45;7.70;;;;;;;26.22;46.32;94814.06;4999591;28;20067;-63
2022/09/30 06:58:55;;;;;;;11.35;8.00;;;;;;;26.28;46.43;94831.13;5010325;28;20053;-63
2022/09/30 07:01:23;;;;;;;11.63;8.30;;;;;;;26.27;46.53;94837.84;5011573;28;20030;-63
2022/09/30 07:03:49;;;;;;;11.88;8.10;;;;;;;26.52;46.27;94856.19;5000141;28;20115;-63
2022/09/30 07:06:15;;;;;;;14.38;10.35;;;;;;;26.87;45.39;94820.69;4993166;28;20567;-66
2022/09/30 07:08:40;;;;;;;16.90;12.07;;;;;;;27.12;44.97;94849.22;5009108;28;20049;-64
2022/09/30 07:11:13;;;;;;;18.75;13.00;;;;;;;26.60;45.23;94815.16;5006576;28;20429;-65
2022/09/30 07:13:45;;;;;;;20.42;13.65;;;;;;;27.50;44.41;94866.69;4992641;28;20088;-64
2022/09/30 07:16:12;;;;;;;20.38;14.98;;;;;;;27.04;45.29;94870.38;4984775;28;20042;-66
2022/09/30 07:18:38;;;;;;;18.85;14.70;;;;;;;26.99;45.31;94856.81;4986060;28;20069;-66
2022/09/30 07:21:04;;;;;;;22.98;15.82;;;;;;;26.21;47.15;94845.44;4985073;28;20515;-63
2022/09/30 07:23:30;;;;;;;22.63;16.00;;;;;;;27.04;45.21;94864.91;4997489;28;20094;-63
2022/09/30 07:25:59;;;;;;;18.50;14.52;;;;;;;26.53;46.36;94854.19;5001830;28;20482;-61
2022/09/30 07:28:30;;;;;;;20.50;14.85;;;;;;;26.37;46.45;94874.47;5004016;28;20052;-62
2022/09/30 07:30:57;;;;;;;19.65;15.18;;;;;;;26.57;45.82;94871.03;5000874;28;20074;-64
2022/09/30 07:33:24;;;;;;;20.27;14.63;;;;;;;26.36;45.59;94834.66;4991011;28;20054;-64
2022/09/30 07:35:53;;;;;;;22.38;16.13;;;;;;;26.25;46.75;94889.66;5011265;28;20778;-63
2022/09/30 07:38:20;;;;;;;23.42;15.98;;;;;;;26.43;45.93;94877.84;5022344;28;20032;-63
2022/09/30 07:41:15;;;;;;;24.90;17.45;;;;;;;25.47;47.32;94828.09;5003644;28;20033;-63
2022/09/30 07:43:42;;;;;;;25.33;17.25;;;;;;;25.71;48.25;94897.03;5007590;28;20079;-62
2022/09/30 07:46:19;;;;;;;21.77;16.60;;;;;;;26.25;46.34;94851.31;5021658;28;20040;-62
2022/09/30 07:48:51;;;;;;;22.20;16.50;;;;;;;26.71;46.13;94875.91;5008678;28;20029;-64
2022/09/30 07:51:22;;;;;;;23.98;16.75;;;;;;;26.06;46.81;94839.78;5019994;28;20037;-63
2022/09/30 07:53:50;;;;;;;21.10;15.57;;;;;;;26.06;47.62;94867.16;5020330;28;20022;-64
2022/09/30 07:56:15;;;;;;;32.67;15.68;;;;;;;26.55;46.47;94868.09;5020776;28;20025;-62
2022/09/30 07:58:41;;;;;;;21.52;14.98;;;;;;;26.31;46.75;94879.34;5003124;28;20196;-62
2022/09/30 08:01:07;;;;;;;24.10;15.43;;;;;;;26.25;46.49;94834.91;5020808;28;20032;-63
2022/09/30 08:03:39;;;;;;;21.15;13.85;;;;;;;26.20;47.10;94865.13;4993857;28;20062;-64
2022/09/30 08:06:12;;;;;;;24.85;14.13;;;;;;;26.61;46.58;94890.63;5020640;28;20132;-64
2022/09/30 08:08:38;;;;;;;18.73;12.77;;;;;;;26.08;47.44;94875.56;5021232;28;20091;-64
2022/09/30 08:11:04;;;;;;;21.20;13.38;;;;;;;26.31;47.29;94887.56;5020722;28;20422;-64
2022/09/30 08:13:29;;;;;;;19.05;12.48;;;;;;;26.25;47.66;94895.13;5019968;28;20878;-62
2022/09/30 08:15:55;;;;;;;21.27;12.30;;;;;;;26.07;47.15;94878.84;5019819;28;20037;-63
2022/09/30 08:18:20;;;;;;;17.85;11.07;;;;;;;26.11;47.43;94869.03;5014653;28;20053;-63
2022/09/30 08:20:46;;;;;;;17.50;11.90;;;;;;;26.43;46.98;94895.00;4998551;28;20056;-64
2022/09/30 08:23:11;;;;;;;15.38;10.32;;;;;;;26.65;46.29;94904.69;5020331;28;20125;-62
2022/09/30 08:25:37;;;;;;;16.23;10.07;;;;;;;26.67;46.51;94902.19;5019449;28;20041;-63
2022/09/30 08:28:02;;;;;;;15.15;10.43;;;;;;;26.50;47.23;94904.53;5003035;28;20743;-64
2022/09/30 08:30:28;;;;;;;23.48;11.00;;;;;;;26.95;45.66;94903.75;5020412;28;20041;-64
2022/09/30 08:32:53;;;;;;;15.98;10.82;;;;;;;26.14;46.51;94835.13;5007523;28;20132;-64
2022/09/30 08:35:18;;;;;;;16.88;11.07;;;;;;;26.34;47.45;94875.53;5018327;28;20050;-64
2022/09/30 08:37:44;;;;;;;24.42;10.90;;;;;;;26.36;47.84;94905.84;5018305;28;20214;-64
2022/09/30 08:40:35;;;;;;;19.40;11.15;;;;;;;26.45;47.66;94902.66;5015225;28;20040;-64
2022/09/30 08:43:20;;;;;;;18.75;11.27;;;;;;;26.62;47.89;94905.75;5000386;28;20069;-65
2022/09/30 08:45:50;;;;;;;18.05;11.13;;;;;;;26.48;47.77;94912.56;5020002;28;20073;-63
2022/09/30 08:48:19;;;;;;;17.20;10.32;;;;;;;26.21;48.47;94916.63;5000461;28;20056;-65
2022/09/30 08:51:03;;;;;;;15.93;9.77;;;;;;;26.36;47.97;94912.06;5013002;28;20017;-64
2022/09/30 08:53:30;;;;;;;18.75;10.10;;;;;;;26.16;48.14;94898.31;5018912;28;20056;-64
2022/09/30 08:55:56;;;;;;;20.10;11.30;;;;;;;26.37;47.76;94921.03;5001587;28;20040;-65
2022/09/30 08:58:22;;;;;;;15.57;9.55;;;;;;;26.27;48.09;94925.44;5001421;28;20041;-64
2022/09/30 09:00:48;;;;;;;18.15;10.18;;;;;;;26.59;46.66;94879.44;5018059;28;20048;-63
2022/09/30 09:03:14;;;;;;;15.65;9.50;;;;;;;26.27;47.55;94902.81;4998090;28;20208;-63
2022/09/30 09:06:07;;;;;;;15.35;9.48;;;;;;;26.42;47.37;94925.66;5014027;28;20809;-64
2022/09/30 09:08:48;;;;;;;17.55;9.85;;;;;;;26.71;47.02;94924.47;5014236;28;20041;-64
2022/09/30 09:11:31;;;;;;;14.60;9.95;;;;;;;26.50;46.39;94923.72;5016216;28;20062;-63
2022/09/30 09:14:11;;;;;;;15.05;8.65;;;;;;;26.46;46.79;94920.59;5000171;28;20077;-64
2022/09/30 09:17:14;;;;;;;13.93;9.30;;;;;;;26.63;46.94;94929.16;4999499;28;20029;-63
2022/09/30 09:20:09;;;;;;;10.52;7.60;;;;;;;26.22;46.93;94917.34;5007329;28;20144;-64
2022/09/30 09:22:35;;;;;;;12.82;8.25;;;;;;;26.48;46.82;94926.97;4992657;28;20045;-63
2022/09/30 09:25:00;;;;;;;11.38;8.07;;;;;;;26.79;45.90;94926.75;4989685;28;20440;-61
2022/09/30 09:27:29;;;;;;;12.38;7.25;;;;;;;26.98;45.71;94943.03;5001647;28;20049;-64
2022/09/30 09:29:57;;;;;;;11.45;7.20;;;;;;;26.05;47.25;94931.41;5019167;28;20037;-64
2022/09/30 09:32:23;;;;;;;11.20;7.40;;;;;;;25.51;47.88;94926.97;5010910;28;20061;-64
2022/09/30 09:34:56;;;;;;;10.48;7.07;;;;;;;25.62;46.82;94872.03;4985153;28;20115;-65
2022/09/30 09:38:23;;;;;;;10.77;6.70;;;;;;;26.04;46.76;94904.56;5001794;28;20030;-64
2022/09/30 09:40:21;;;;;;;11.23;6.35;;;;;;;26.16;46.47;94909.25;5000371;28;20542;-64
2022/09/30 09:43:24;;;;;;;7.18;5.93;;;;;;;26.29;46.28;94890.81;4979257;28;20498;-63
2022/09/30 09:46:04;;;;;;;9.02;6.18;;;;;;;26.26;47.10;94934.19;4968135;28;20049;-64
2022/09/30 09:48:34;;;;;;;8.60;6.07;;;;;;;25.99;46.67;94900.66;4997177;28;20036;-63
2022/09/30 09:51:11;;;;;;;9.30;5.75;;;;;;;25.93;47.24;94930.16;5021750;28;20029;-63
2022/09/30 09:53:56;;;;;;;8.05;5.60;;;;;;;26.03;47.43;94927.72;4994033;28;20579;-63
2022/09/30 09:56:25;;;;;;;10.10;6.72;;;;;;;25.70;47.60;94913.97;5024953;28;20061;-65
2022/09/30 09:59:12;;;;;;;11.75;6.03;;;;;;;25.67;47.06;94863.03;5019896;28;20494;-63
2022/09/30 10:01:41;;;;;;;8.95;5.97;;;;;;;25.97;46.36;94886.75;5018229;28;20051;-65
2022/09/30 10:04:20;;;;;;;10.18;5.95;;;;;;;26.04;45.91;94872.44;5012004;28;20691;-63
2022/09/30 10:06:54;;;;;;;8.43;5.85;;;;;;;26.53;44.93;94881.56;5006049;28;20045;-63
2022/09/30 10:09:33;;;;;;;9.48;5.75;;;;;;;27.11;45.13;94940.25;5015260;28;20034;-66
2022/09/30 10:12:05;;;;;;;11.73;5.60;;;;;;;27.13;44.63;94932.97;5014020;28;20029;-63
2022/09/30 10:14:49;;;;;;;7.25;5.85;;;;;;;27.04;44.91;94941.66;5022736;28;20033;-65
2022/09/30 10:17:24;;;;;;;9.73;6.35;;;;;;;26.30;45.56;94880.59;5022257;28;20143;-65
2022/09/30 10:19:56;;;;;;;8.63;6.00;;;;;;;26.46;45.65;94920.59;4999773;28;20048;-64
2022/09/30 10:22:29;;;;;;;7.55;5.15;;;;;;;26.05;44.88;94870.44;5004373;28;20049;-64
2022/09/30 10:25:13;;;;;;;6.95;4.93;;;;;;;25.80;45.17;94921.94;5021600;28;20533;-65
2022/09/30 10:27:54;;;;;;;7.38;4.68;;;;;;;26.56;44.10;94924.31;5017893;28;20054;-62
2022/09/30 10:30:30;;;;;;;7.32;4.85;;;;;;;26.75;43.00;94853.66;5016748;28;20060;-65
2022/09/30 10:32:56;;;;;;;8.85;4.63;;;;;;;26.79;42.84;94866.47;5009566;28;20287;-63
2022/09/30 10:35:21;;;;;;;7.40;4.70;;;;;;;26.69;43.49;94866.75;5021447;28;20049;-65
2022/09/30 10:37:50;;;;;;;7.45;4.50;;;;;;;26.87;43.30;94905.63;4987401;28;20029;-64
2022/09/30 10:40:16;;;;;;;35.22;13.93;;;;;;;27.08;42.55;94898.16;4999059;28;20129;-66
2022/09/30 10:42:45;;;;;;;94.15;36.15;;;;;;;26.75;43.34;94878.31;5012676;28;20429;-63
2022/09/30 10:45:28;;;;;;;65.23;23.50;;;;;;;27.43;42.54;94911.25;4992499;28;20116;-63
2022/09/30 10:47:54;;;;;;;39.38;16.52;;;;;;;26.91;42.32;94911.56;4987040;28;20048;-65
2022/09/30 10:50:21;;;;;;;39.00;13.90;;;;;;;26.87;42.42;94905.63;5022512;28;20551;-66
2022/09/30 10:52:55;;;;;;;28.20;11.27;;;;;;;26.66;42.14;94911.66;5004453;28;20038;-64
2022/09/30 10:55:21;;;;;;;30.48;12.80;;;;;;;27.19;42.15;94906.13;4987252;28;20451;-66
2022/09/30 10:57:47;;;;;;;24.30;10.07;;;;;;;26.61;42.13;94860.47;5020486;28;20033;-64
2022/09/30 11:00:17;;;;;;;21.75;8.75;;;;;;;26.46;42.19;94852.13;5020532;28;20226;-64
2022/09/30 11:02:54;;;;;;;21.92;9.30;;;;;;;26.68;42.59;94893.44;5019961;28;20040;-63
2022/09/30 11:05:25;;;;;;;21.77;8.32;;;;;;;27.53;41.59;94920.47;4987328;28;20022;-63
2022/09/30 11:08:02;;;;;;;15.50;7.15;;;;;;;27.72;40.63;94915.50;5012279;28;20117;-63
2022/09/30 11:10:42;;;;;;;14.65;5.88;;;;;;;27.41;40.99;94911.03;5008480;28;20661;-63
2022/09/30 11:13:24;;;;;;;19.98;6.35;;;;;;;27.38;41.52;94923.09;4995713;28;20037;-63
2022/09/30 11:15:55;;;;;;;15.30;6.22;;;;;;;27.10;41.94;94917.59;5000768;28;20670;-62
2022/09/30 11:18:25;;;;;;;10.95;5.35;;;;;;;27.33;41.26;94924.69;5013029;28;20048;-64
2022/09/30 11:20:54;;;;;;;10.38;5.47;;;;;;;27.49;41.17;94903.63;5015972;28;20548;-63
2022/09/30 11:23:39;;;;;;;11.50;5.13;;;;;;;27.45;41.15;94914.19;4981098;28;20053;-63
2022/09/30 11:26:23;;;;;;;10.85;4.95;;;;;;;27.59;40.44;94915.56;5018714;28;20336;-62
2022/09/30 11:29:04;;;;;;;10.77;5.47;;;;;;;27.29;40.86;94885.94;5019488;28;20076;-64
2022/09/30 11:31:39;;;;;;;10.10;4.28;;;;;;;27.70;40.82;94907.03;4988729;28;20038;-62
2022/09/30 11:34:23;;;;;;;8.40;4.68;;;;;;;27.94;40.44;94921.81;4985017;28;20046;-65
2022/09/30 11:37:15;;;;;;;8.52;3.90;;;;;;;27.79;40.35;94916.25;5015244;28;20107;-64
2022/09/30 11:39:54;;;;;;;8.98;4.03;;;;;;;27.60;40.38;94925.28;5006874;28;20046;-62
2022/09/30 11:42:36;;;;;;;8.45;4.60;;;;;;;27.54;40.57;94917.19;5008928;28;20041;-62
2022/09/30 11:45:25;;;;;;;6.82;3.33;;;;;;;27.62;40.80;94911.75;4994378;28;20045;-61
2022/09/30 11:47:52;;;;;;;8.75;4.15;;;;;;;28.09;39.78;94927.41;4979169;28;20215;-62
2022/09/30 11:50:17;;;;;;;7.47;3.88;;;;;;;28.00;39.19;94921.69;5006806;28;20139;-61
2022/09/30 11:52:59;;;;;;;6.45;2.97;;;;;;;28.04;38.81;94924.78;5019922;28;20434;-62
2022/09/30 11:55:30;;;;;;;6.20;2.80;;;;;;;28.08;39.15;94923.16;5020266;28;20046;-61
2022/09/30 11:58:10;;;;;;;6.45;3.10;;;;;;;27.92;38.85;94902.44;5019920;28;20136;-64
2022/09/30 12:00:38;;;;;;;6.70;3.15;;;;;;;27.96;38.04;94891.81;4996501;28;20037;-63